Main page
METAR-TAF:

METAR-TAF

Airports :

Barcelona–El Prat Airport

Barcelona, Spain

latitude: 41-17N, longitude: 002-04E, elevation: 4 m

Current weather observation

The report was made 16 minutes ago, at 11:30 UTC
Wind 11 kt from the South/Southwest, varying between South and West/Southwest
Temperature 27°C
Humidity 70%
Pressure 1016 hPa
Visibility 10 km or more
Few clouds at a height of 3500 ft

METAR: LEBL 231130Z 21011KT 170V240 9999 FEW035 27/21 Q1016 NOSIG

Time: 13:46 (11:46 UTC)

Forecast

The report was made 46 minutes ago, at 11:00 UTC
Forecast valid from 23 at 12 UTC to 24 at 12 UTC
Wind 12 kt from the Southwest
Visibility 10 km or more
Few clouds at a height of 3000 ft
Becoming
from 23 at 18 UTC to 23 at 21 UTC
Wind 3 kt from variable directions
Becoming
from 24 at 07 UTC to 24 at 09 UTC
Wind 10 kt from the South/Southwest

TAF: LEBL 231100Z 2312/2412 22012KT 9999 FEW030 TX30/2312Z TN24/2406Z BECMG 2318/2321 VRB03KT BECMG 2407/2409 21010KT

Weather observations and forecasts of more than 4000 airports (METAR and TAF reports).

The available stations are represented by yellow and red dots on the map.

Hover mouse over dot to see the name of the station.

Then click to see weather observations and forecasts.

To change the map : click on the green buttons with a black cross to zoom in, on the green button with a dash to zoom out, or on the green arrows for adjacent maps.


METAR-TAF: